createdAt,value
2022-08-07T00:02:36.593Z,22.04
2022-08-07T00:05:05.738Z,21.93
2022-08-07T00:07:40.317Z,21.84
2022-08-07T00:10:27.162Z,21.76
2022-08-07T00:13:00.636Z,21.66
2022-08-07T00:15:38.002Z,21.55
2022-08-07T00:18:19.874Z,21.50
2022-08-07T00:20:49.793Z,21.46
2022-08-07T00:23:17.729Z,21.40
2022-08-07T00:25:51.818Z,21.47
2022-08-07T00:28:33.790Z,21.46
2022-08-07T00:31:05.761Z,21.42
2022-08-07T00:33:35.962Z,21.48
2022-08-07T00:36:04.732Z,21.49
2022-08-07T00:38:33.307Z,21.51
2022-08-07T00:41:01.794Z,21.53
2022-08-07T00:44:01.496Z,21.55
2022-08-07T00:46:17.017Z,21.57
2022-08-07T00:48:45.330Z,21.56
2022-08-07T00:51:17.598Z,21.57
2022-08-07T00:53:50.852Z,21.55
2022-08-07T00:56:30.147Z,21.53
2022-08-07T00:58:59.275Z,21.46
2022-08-07T01:01:26.900Z,21.46
2022-08-07T01:04:00.335Z,21.43
2022-08-07T01:06:30.022Z,21.43
2022-08-07T01:09:00.720Z,21.41
2022-08-07T01:12:23.278Z,21.42
2022-08-07T01:14:21.115Z,21.43
2022-08-07T01:16:56.091Z,21.42
2022-08-07T01:19:25.449Z,21.48
2022-08-07T01:21:55.657Z,21.48
2022-08-07T01:24:32.139Z,21.47
2022-08-07T01:27:01.598Z,21.46
2022-08-07T01:29:31.499Z,21.43
2022-08-07T01:32:05.327Z,21.46
2022-08-07T01:34:35.377Z,21.46
2022-08-07T01:37:09.815Z,21.43
2022-08-07T01:39:46.424Z,21.39
2022-08-07T01:42:57.293Z,21.32
2022-08-07T01:45:36.847Z,21.25
2022-08-07T01:48:18.601Z,21.19
2022-08-07T01:51:24.044Z,21.16
2022-08-07T01:54:09.385Z,21.11
2022-08-07T01:56:55.338Z,21.07
2022-08-07T01:59:30.908Z,21.01
2022-08-07T02:02:12.036Z,21.02
2022-08-07T02:05:47.497Z,21.00
2022-08-07T02:08:19.686Z,20.96
2022-08-07T02:10:57.998Z,20.97
2022-08-07T02:13:58.168Z,20.99
2022-08-07T02:16:33.201Z,21.04
2022-08-07T02:20:07.444Z,21.06
2022-08-07T02:21:58.875Z,21.09
2022-08-07T02:24:30.213Z,21.07
2022-08-07T02:27:05.100Z,21.16
2022-08-07T02:29:36.853Z,21.21
2022-08-07T02:32:19.342Z,21.19
2022-08-07T02:34:53.014Z,21.22
2022-08-07T02:37:27.109Z,21.36
2022-08-07T02:40:11.881Z,21.72
2022-08-07T02:42:46.888Z,22.50
2022-08-07T02:45:57.707Z,23.21
2022-08-07T02:48:10.356Z,23.88
2022-08-07T02:50:48.995Z,24.36
2022-08-07T02:53:27.638Z,24.72
2022-08-07T02:56:04.395Z,25.25
2022-08-07T02:58:39.869Z,25.68
2022-08-07T03:01:19.108Z,26.01
2022-08-07T03:04:12.584Z,26.32
2022-08-07T03:06:44.662Z,26.60
2022-08-07T03:09:41.783Z,26.81
2022-08-07T03:12:08.126Z,27.16
2022-08-07T03:14:52.182Z,27.59
2022-08-07T03:17:22.134Z,27.88
2022-08-07T03:19:54.699Z,28.09
2022-08-07T03:22:30.411Z,28.23
2022-08-07T03:25:01.771Z,28.51
2022-08-07T03:27:58.745Z,29.00
2022-08-07T03:30:27.721Z,29.21
2022-08-07T03:32:59.362Z,29.36
2022-08-07T03:35:44.057Z,29.52
2022-08-07T03:38:20.929Z,29.46
2022-08-07T03:40:57.476Z,29.70
2022-08-07T03:43:32.246Z,30.18
2022-08-07T03:46:04.106Z,30.56
2022-08-07T03:48:45.390Z,30.83
2022-08-07T03:51:30.698Z,30.98
2022-08-07T03:54:33.261Z,30.93
2022-08-07T03:57:03.379Z,31.05
2022-08-07T03:59:35.547Z,31.24
2022-08-07T04:02:03.726Z,31.17
2022-08-07T04:04:32.750Z,30.38
2022-08-07T04:07:16.669Z,29.74
2022-08-07T04:09:50.533Z,29.48
2022-08-07T04:12:27.576Z,28.75
2022-08-07T04:15:00.234Z,28.53
2022-08-07T04:18:30.921Z,28.19
2022-08-07T04:20:21.624Z,28.21
2022-08-07T04:22:53.390Z,28.50
2022-08-07T04:25:24.202Z,29.27
2022-08-07T04:28:00.318Z,30.09
2022-08-07T04:30:39.386Z,30.55
2022-08-07T04:33:20.030Z,31.17
2022-08-07T04:35:53.265Z,32.08
2022-08-07T04:38:26.922Z,32.47
2022-08-07T04:40:56.786Z,32.60
2022-08-07T04:44:10.687Z,32.85
2022-08-07T04:47:04.575Z,33.05
2022-08-07T04:50:03.457Z,33.35
2022-08-07T04:52:52.470Z,33.52
2022-08-07T04:58:10.150Z,33.85
2022-08-07T04:59:18.449Z,34.37
2022-08-07T05:01:47.246Z,35.04
2022-08-07T05:04:47.351Z,35.48
2022-08-07T05:07:30.506Z,35.50
2022-08-07T05:10:11.791Z,35.50
2022-08-07T05:12:56.094Z,35.93
2022-08-07T05:15:36.367Z,36.10
2022-08-07T05:18:10.372Z,36.35
2022-08-07T05:20:45.404Z,36.88
2022-08-07T05:23:19.653Z,37.44
2022-08-07T05:26:13.242Z,38.01
2022-08-07T05:28:48.647Z,38.15
2022-08-07T05:31:23.453Z,38.02
2022-08-07T05:34:04.585Z,38.47
2022-08-07T05:36:39.215Z,38.90
2022-08-07T05:40:14.320Z,39.28
2022-08-07T05:42:08.901Z,38.41
2022-08-07T05:44:52.799Z,37.86
2022-08-07T05:47:38.553Z,38.31
2022-08-07T05:50:21.559Z,38.68
2022-08-07T05:52:50.229Z,38.66
2022-08-07T05:55:18.028Z,39.02
2022-08-07T05:57:47.985Z,39.17
2022-08-07T06:00:18.191Z,39.70
2022-08-07T06:03:02.152Z,40.00
2022-08-07T06:05:32.478Z,40.11
2022-08-07T06:08:13.319Z,40.16
2022-08-07T06:10:54.870Z,40.24
2022-08-07T06:14:10.311Z,39.92
2022-08-07T06:16:15.360Z,39.86
2022-08-07T06:18:55.518Z,40.04
2022-08-07T06:22:16.649Z,40.48
2022-08-07T06:24:48.210Z,40.95
2022-08-07T06:27:03.749Z,41.01
2022-08-07T06:29:38.800Z,41.54
2022-08-07T06:32:08.489Z,42.00
2022-08-07T06:34:36.035Z,42.15
2022-08-07T06:37:09.020Z,42.51
2022-08-07T06:40:15.906Z,42.77
2022-08-07T06:42:36.916Z,43.08
2022-08-07T06:45:37.243Z,43.49
2022-08-07T06:48:06.920Z,43.35
2022-08-07T06:50:47.776Z,43.59
2022-08-07T06:54:12.198Z,43.68
2022-08-07T06:56:15.075Z,43.97
2022-08-07T07:00:13.921Z,44.13
2022-08-07T07:01:48.901Z,44.07
2022-08-07T07:04:28.488Z,44.09
2022-08-07T07:07:10.460Z,44.14
2022-08-07T07:09:48.970Z,44.25
2022-08-07T07:12:33.631Z,44.34
2022-08-07T07:15:08.589Z,44.51
2022-08-07T07:18:02.163Z,44.23
2022-08-07T07:21:13.306Z,43.89
2022-08-07T07:24:08.949Z,43.93
2022-08-07T07:26:37.237Z,43.45
2022-08-07T07:29:55.815Z,43.26
2022-08-07T07:32:11.888Z,41.89
2022-08-07T07:34:50.004Z,40.68
2022-08-07T07:37:45.377Z,39.86
2022-08-07T07:40:10.242Z,39.13
2022-08-07T07:42:53.825Z,38.28
2022-08-07T07:46:38.104Z,37.52
2022-08-07T07:48:35.324Z,36.81
2022-08-07T07:51:07.573Z,36.38
2022-08-07T07:53:52.060Z,36.18
2022-08-07T07:56:30.285Z,35.86
2022-08-07T07:59:06.213Z,35.72
2022-08-07T08:02:02.170Z,35.65
2022-08-07T08:04:25.891Z,35.55
2022-08-07T08:06:54.564Z,35.46
2022-08-07T08:09:29.480Z,35.42
2022-08-07T08:12:02.003Z,35.38
2022-08-07T08:14:34.147Z,35.21
2022-08-07T08:17:55.599Z,35.38
2022-08-07T08:20:17.081Z,35.77
2022-08-07T08:23:09.382Z,35.84
2022-08-07T08:26:03.369Z,35.67
2022-08-07T08:28:39.171Z,35.46
2022-08-07T08:31:16.326Z,35.81
2022-08-07T08:33:55.824Z,35.77
2022-08-07T08:36:30.322Z,35.48
2022-08-07T08:39:01.925Z,35.22
2022-08-07T08:41:57.170Z,35.01
2022-08-07T08:45:05.938Z,34.87
2022-08-07T08:47:52.512Z,34.69
2022-08-07T08:50:39.280Z,34.82
2022-08-07T08:53:29.283Z,35.07
2022-08-07T08:56:10.936Z,35.56
2022-08-07T08:59:13.741Z,36.10
2022-08-07T09:01:49.178Z,36.87
2022-08-07T09:04:30.344Z,37.04
2022-08-07T09:07:11.559Z,37.28
2022-08-07T09:10:06.588Z,37.60
2022-08-07T09:13:02.388Z,37.66
2022-08-07T09:16:22.936Z,37.43
2022-08-07T09:19:52.095Z,37.41
2022-08-07T09:22:37.050Z,37.45
2022-08-07T09:25:07.003Z,37.13
2022-08-07T09:28:04.297Z,36.96
2022-08-07T09:31:08.520Z,36.97
2022-08-07T09:33:57.866Z,36.76
2022-08-07T09:36:35.661Z,36.55
2022-08-07T09:39:54.663Z,36.38
2022-08-07T09:42:41.132Z,36.39
2022-08-07T09:47:23.828Z,36.29
2022-08-07T09:48:08.802Z,36.33
2022-08-07T09:52:09.240Z,36.80
2022-08-07T09:54:07.112Z,37.77
2022-08-07T09:56:53.977Z,38.80
2022-08-07T09:59:21.960Z,39.66
2022-08-07T10:02:19.131Z,40.35
2022-08-07T10:05:16.285Z,40.85
2022-08-07T10:08:04.670Z,40.86
2022-08-07T10:12:00.483Z,40.75
2022-08-07T10:14:11.107Z,40.57
2022-08-07T10:17:14.496Z,40.57
2022-08-07T10:19:49.491Z,40.69
2022-08-07T10:22:51.174Z,40.51
2022-08-07T10:25:44.539Z,39.92
2022-08-07T10:28:36.579Z,39.09
2022-08-07T10:31:39.061Z,38.28
2022-08-07T10:34:27.035Z,37.64
2022-08-07T10:37:48.702Z,37.10
2022-08-07T10:40:30.593Z,36.50
2022-08-07T10:43:02.695Z,36.32
2022-08-07T10:45:57.081Z,36.26
2022-08-07T10:48:51.531Z,36.31
2022-08-07T10:51:39.303Z,36.43
2022-08-07T10:54:15.640Z,36.78
2022-08-07T10:57:22.104Z,37.09
2022-08-07T11:00:39.240Z,37.31
2022-08-07T11:03:15.129Z,37.62
2022-08-07T11:05:50.880Z,37.60
2022-08-07T11:08:46.026Z,37.59
2022-08-07T11:11:24.780Z,37.27
2022-08-07T11:14:45.970Z,36.64
2022-08-07T11:17:13.525Z,36.04
2022-08-07T11:20:03.356Z,35.97
2022-08-07T11:22:45.639Z,36.15
2022-08-07T11:25:23.890Z,36.40
2022-08-07T11:28:15.621Z,36.70
2022-08-07T11:30:50.937Z,36.71
2022-08-07T11:33:59.096Z,36.78
2022-08-07T11:36:25.386Z,36.59
2022-08-07T11:39:39.668Z,36.48
2022-08-07T11:42:37.493Z,36.51
2022-08-07T11:45:35.898Z,36.58
2022-08-07T11:48:18.024Z,36.59
2022-08-07T11:51:41.222Z,36.77
2022-08-07T11:54:55.041Z,36.79
2022-08-07T11:57:59.757Z,36.54
2022-08-07T12:01:05.113Z,36.50
2022-08-07T12:03:46.097Z,36.53
2022-08-07T12:06:55.359Z,36.71
2022-08-07T12:09:48.990Z,36.87
2022-08-07T12:12:25.515Z,36.85
2022-08-07T12:15:01.366Z,36.54
2022-08-07T12:17:59.739Z,36.39
2022-08-07T12:20:46.347Z,36.25
2022-08-07T12:24:06.105Z,36.37
2022-08-07T12:26:46.849Z,36.30
2022-08-07T12:29:38.376Z,36.25
2022-08-07T12:32:21.196Z,36.20
2022-08-07T12:34:55.597Z,36.14
2022-08-07T12:37:28.304Z,36.00
2022-08-07T12:40:44.896Z,35.86
2022-08-07T12:43:09.675Z,35.58
2022-08-07T12:45:56.973Z,35.51
2022-08-07T12:48:53.153Z,35.41
2022-08-07T12:51:33.450Z,35.19
2022-08-07T12:54:41.309Z,34.99
2022-08-07T12:57:11.281Z,34.89
2022-08-07T12:59:54.213Z,34.81
2022-08-07T13:02:49.468Z,34.80
2022-08-07T13:06:03.000Z,34.78
2022-08-07T13:08:43.330Z,34.86
2022-08-07T13:12:01.853Z,35.04
2022-08-07T13:14:55.389Z,35.19
2022-08-07T13:17:42.483Z,35.12
2022-08-07T13:20:21.811Z,34.90
2022-08-07T13:24:00.158Z,34.70
2022-08-07T13:26:18.398Z,34.59
2022-08-07T13:29:09.937Z,34.47
2022-08-07T13:31:57.604Z,34.37
2022-08-07T13:34:36.257Z,34.29
2022-08-07T13:37:22.322Z,34.26
2022-08-07T13:40:35.034Z,34.25
2022-08-07T13:42:53.414Z,34.31
2022-08-07T13:46:10.906Z,34.33
2022-08-07T13:48:27.911Z,34.45
2022-08-07T13:51:20.423Z,34.51
2022-08-07T13:54:00.181Z,34.60
2022-08-07T13:56:35.815Z,34.61
2022-08-07T13:59:27.263Z,34.63
2022-08-07T14:02:04.780Z,34.67
2022-08-07T14:04:47.417Z,34.72
2022-08-07T14:07:23.074Z,34.74
2022-08-07T14:10:02.488Z,34.70
2022-08-07T14:12:49.480Z,34.54
2022-08-07T14:15:42.586Z,34.34
2022-08-07T14:18:30.752Z,34.23
2022-08-07T14:21:20.651Z,34.11
2022-08-07T14:24:01.947Z,33.88
2022-08-07T14:26:37.570Z,33.92
2022-08-07T14:30:07.112Z,33.89
2022-08-07T14:32:03.644Z,33.83
2022-08-07T14:34:33.718Z,33.74
2022-08-07T14:37:03.726Z,33.66
2022-08-07T14:40:14.834Z,33.57
2022-08-07T14:45:21.917Z,33.40
2022-08-07T14:48:07.762Z,33.38
2022-08-07T14:50:42.454Z,33.33
2022-08-07T14:53:11.422Z,33.29
2022-08-07T14:58:35.902Z,33.22
2022-08-07T15:03:53.696Z,33.14
2022-08-07T15:06:26.206Z,33.08
2022-08-07T15:08:55.742Z,32.99
2022-08-07T15:11:53.482Z,32.94
2022-08-07T15:14:22.917Z,32.81
2022-08-07T15:17:11.716Z,32.81
2022-08-07T15:23:17.077Z,32.68
2022-08-07T15:25:55.625Z,32.59
2022-08-07T15:28:34.749Z,32.54
2022-08-07T15:31:08.661Z,32.50
2022-08-07T15:39:17.749Z,32.31
2022-08-07T15:44:52.569Z,32.16
2022-08-07T15:51:01.480Z,31.97
2022-08-07T15:53:11.850Z,31.86
2022-08-07T15:55:53.838Z,31.75
2022-08-07T15:58:40.419Z,31.64
2022-08-07T16:01:20.498Z,31.51
2022-08-07T16:03:58.251Z,31.39
2022-08-07T16:06:49.471Z,31.29
2022-08-07T16:09:22.816Z,31.17
2022-08-07T16:12:12.268Z,31.09
2022-08-07T16:15:05.785Z,31.00
2022-08-07T16:18:01.429Z,30.86
2022-08-07T16:21:42.988Z,30.76
2022-08-07T16:24:03.668Z,30.66
2022-08-07T16:26:59.537Z,30.55
2022-08-07T16:30:09.994Z,30.46
2022-08-07T16:32:54.587Z,30.35
2022-08-07T16:35:56.561Z,30.36
2022-08-07T16:39:00.995Z,30.32
2022-08-07T16:41:54.470Z,30.29
2022-08-07T16:45:03.838Z,30.28
2022-08-07T16:47:55.864Z,30.25
2022-08-07T16:51:21.591Z,30.27
2022-08-07T16:54:32.508Z,30.26
2022-08-07T16:58:03.009Z,30.26
2022-08-07T17:00:14.990Z,30.29
2022-08-07T17:03:06.324Z,30.28
2022-08-07T17:06:19.073Z,30.27
2022-08-07T17:09:14.274Z,30.26
2022-08-07T17:12:04.680Z,30.25
2022-08-07T17:14:50.233Z,30.26
2022-08-07T17:17:44.237Z,30.25
2022-08-07T17:20:31.667Z,30.20
2022-08-07T17:23:35.337Z,30.15
2022-08-07T17:26:23.603Z,30.07
2022-08-07T17:29:07.737Z,30.00
2022-08-07T17:31:44.381Z,29.94
2022-08-07T17:34:40.939Z,29.90
2022-08-07T17:38:09.491Z,29.85
2022-08-07T17:40:32.194Z,29.81
2022-08-07T17:44:01.793Z,29.80
2022-08-07T17:46:36.222Z,29.74
2022-08-07T17:49:24.133Z,29.65
2022-08-07T17:52:14.112Z,29.48
2022-08-07T17:54:53.707Z,29.33
2022-08-07T17:57:58.540Z,29.18
2022-08-07T18:00:49.211Z,29.03
2022-08-07T18:04:04.412Z,28.90
2022-08-07T18:06:38.453Z,28.76
2022-08-07T18:09:08.660Z,28.57
2022-08-07T18:12:16.133Z,28.55
2022-08-07T18:15:02.206Z,28.48
2022-08-07T18:18:46.614Z,28.39
2022-08-07T18:21:57.825Z,28.31
2022-08-07T18:25:24.120Z,28.24
2022-08-07T18:28:12.404Z,28.18
2022-08-07T18:30:56.289Z,28.12
2022-08-07T18:33:58.530Z,28.10
2022-08-07T18:37:14.560Z,28.10
2022-08-07T18:40:42.572Z,28.04
2022-08-07T18:43:15.945Z,28.03
2022-08-07T18:46:24.649Z,27.99
2022-08-07T18:50:31.520Z,27.95
2022-08-07T18:52:25.462Z,27.91
2022-08-07T18:55:42.867Z,27.87
2022-08-07T18:58:14.727Z,27.80
2022-08-07T19:01:02.076Z,27.75
2022-08-07T19:03:43.755Z,27.69
2022-08-07T19:06:21.660Z,27.66
2022-08-07T19:09:55.512Z,27.62
2022-08-07T19:12:35.241Z,27.60
2022-08-07T19:16:04.216Z,27.55
2022-08-07T19:18:36.717Z,27.49
2022-08-07T19:21:51.043Z,27.45
2022-08-07T19:24:30.959Z,27.38
2022-08-07T19:28:58.401Z,27.30
2022-08-07T19:31:00.136Z,27.23
2022-08-07T19:32:51.291Z,27.15
2022-08-07T19:35:23.589Z,27.09
2022-08-07T19:37:58.152Z,27.01
2022-08-07T19:40:37.018Z,26.94
2022-08-07T19:43:43.923Z,26.87
2022-08-07T19:46:10.886Z,26.75
2022-08-07T19:48:42.732Z,26.67
2022-08-07T19:51:19.832Z,26.59
2022-08-07T19:54:31.046Z,26.52
2022-08-07T19:58:02.455Z,26.44
2022-08-07T19:59:40.981Z,26.38
2022-08-07T20:02:19.744Z,26.32
2022-08-07T20:04:50.529Z,26.26
2022-08-07T20:07:46.340Z,26.20
2022-08-07T20:10:37.886Z,26.12
2022-08-07T20:13:22.697Z,26.06
2022-08-07T20:15:57.874Z,25.98
2022-08-07T20:18:32.752Z,25.91
2022-08-07T20:21:21.571Z,25.83
2022-08-07T20:24:04.372Z,25.76
2022-08-07T20:26:44.975Z,25.69
2022-08-07T20:29:48.146Z,25.59
2022-08-07T20:32:11.403Z,25.51
2022-08-07T20:34:53.175Z,25.41
2022-08-07T20:37:29.794Z,25.34
2022-08-07T20:40:05.591Z,25.27
2022-08-07T20:42:57.803Z,25.22
2022-08-07T20:45:33.108Z,25.14
2022-08-07T20:48:29.022Z,25.05
2022-08-07T20:51:01.477Z,25.01
2022-08-07T20:54:03.851Z,24.93
2022-08-07T20:56:32.331Z,24.92
2022-08-07T20:59:05.415Z,24.89
2022-08-07T21:01:45.216Z,24.86
2022-08-07T21:04:27.862Z,24.83
2022-08-07T21:07:04.443Z,24.77
2022-08-07T21:09:52.959Z,24.73
2022-08-07T21:12:31.853Z,24.64
2022-08-07T21:15:05.969Z,24.63
2022-08-07T21:18:03.912Z,24.58
2022-08-07T21:20:33.117Z,24.52
2022-08-07T21:23:15.395Z,24.49
2022-08-07T21:25:56.865Z,24.41
2022-08-07T21:28:51.075Z,24.42
2022-08-07T21:32:03.700Z,24.38
2022-08-07T21:35:17.697Z,24.37
2022-08-07T21:38:19.590Z,24.37
2022-08-07T21:41:10.085Z,24.39
2022-08-07T21:43:57.471Z,24.36
2022-08-07T21:46:49.922Z,24.32
2022-08-07T21:50:02.881Z,24.33
2022-08-07T21:52:42.842Z,24.29
2022-08-07T21:55:19.522Z,24.26
2022-08-07T21:58:32.427Z,24.22
2022-08-07T22:01:14.100Z,24.16
2022-08-07T22:04:00.613Z,24.14
2022-08-07T22:06:37.523Z,24.09
2022-08-07T22:09:17.774Z,24.06
2022-08-07T22:12:05.099Z,24.04
2022-08-07T22:16:43.805Z,23.99
2022-08-07T22:18:35.900Z,23.93
2022-08-07T22:21:24.100Z,23.87
2022-08-07T22:24:33.159Z,23.82
2022-08-07T22:27:34.222Z,23.78
2022-08-07T22:30:16.860Z,23.71
2022-08-07T22:33:52.533Z,23.71
2022-08-07T22:36:23.859Z,23.69
2022-08-07T22:39:30.415Z,23.65
2022-08-07T22:42:25.963Z,23.60
2022-08-07T22:45:02.269Z,23.46
2022-08-07T22:48:31.293Z,23.54
2022-08-07T22:51:04.611Z,23.46
2022-08-07T22:54:07.982Z,23.44
2022-08-07T22:57:05.483Z,23.40
2022-08-07T22:59:49.735Z,23.34
2022-08-07T23:02:32.097Z,23.27
2022-08-07T23:06:07.201Z,23.24
2022-08-07T23:08:14.760Z,23.18
2022-08-07T23:11:12.883Z,23.12
2022-08-07T23:14:10.775Z,23.08
2022-08-07T23:17:04.033Z,22.99
2022-08-07T23:20:21.561Z,22.98
2022-08-07T23:24:05.177Z,22.90
2022-08-07T23:27:07.887Z,22.79
2022-08-07T23:30:37.497Z,22.72
2022-08-07T23:34:23.883Z,22.63
2022-08-07T23:37:17.940Z,22.56
2022-08-07T23:39:59.046Z,22.48
2022-08-07T23:42:39.923Z,22.41
2022-08-07T23:45:33.390Z,22.35
2022-08-07T23:49:00.616Z,22.28
2022-08-07T23:53:01.774Z,22.22
2022-08-07T23:54:44.607Z,22.19
2022-08-07T23:57:37.242Z,22.16
